Flight Track Log - Related Links

Times and Time Zones

All times are in EDT time to prevent confusion due to time zone crossing. See the UAL479 flight status page for this flight to view local times or setup timezone preferences in your user account.

Time Position Orientation Groundspeed Altitude Reporting Facility
EDT Latitude Longitude Course Direction KTS MPH feet Rate Location/Type
Fri 12:16:03 AM 29.9778 -95.3344 291° West 175 201 600  Level Houston Center
Fri 12:16:21 AM 29.9750 -95.3517 259° West 178 205 1,400 1,875 Climbing Houston Center
Fri 12:16:51 AM 29.9706 -95.3778 259° West 204 235 2,100 2,400 Climbing Houston Center
Fri 12:17:51 AM 29.9675 -95.4533 267° West 246 283 5,000 3,025 Climbing Houston Center
Fri 12:18:52 AM 29.9800 -95.5311 281° West 248 285 8,200 2,656 Climbing Houston Center
Fri 12:19:53 AM 29.9944 -95.6139 281° West 262 302 10,400 2,331 Climbing Houston Center
Fri 12:20:00 AM 30.0432 -95.9175 276° West  Level FlightAware Approximate
Fri 12:20:53 AM 30.0125 -95.7147 282° West 317 365 12,900  Level Houston Center
Fri 12:21:00 AM 30.0609 -96.0327 291° West  Level FlightAware Approximate
Fri 12:21:54 AM 30.0300 -95.8175 281° West 329 379 15,300  Level Houston Center
Fri 12:22:55 AM 30.0525 -95.9467 281° West 345 397 18,000 2,231 Climbing Houston Center
Fri 12:23:55 AM 30.0681 -96.0403 281° West 352 405 19,800 2,083 Climbing Houston Center
Fri 12:24:56 AM 30.0889 -96.1789 280° West 366 421 22,200 2,115 Climbing Houston Center
Fri 12:25:57 AM 30.1067 -96.2964 280° West 374 430 24,100 1,820 Climbing Houston Center
Fri 12:26:58 AM 30.1244 -96.4169 280° West 381 438 25,900 1,686 Climbing Houston Center
Fri 12:27:58 AM 30.1419 -96.5244 281° West 381 438 27,500 1,488 Climbing Houston Center
Fri 12:28:59 AM 30.1589 -96.6489 279° West 386 444 28,900 1,475 Climbing Houston Center
Fri 12:30:00 AM 30.1786 -96.7739 280° West 390 449 30,500 2,164 Climbing Houston Center
Fri 12:31:01 AM 30.1978 -96.8892 281° West 365 420 33,300 1,884 Climbing Houston Center
Fri 12:32:01 AM 30.2133 -96.9992 279° West 344 396 34,300 942 Climbing Houston Center
Fri 12:33:02 AM 30.2297 -97.1150 279° West 354 407 35,200 836 Climbing Houston Center
Fri 12:34:03 AM 30.2458 -97.2289 279° West 355 409 36,000 397 Climbing Houston Center
Fri 12:35:03 AM 30.2617 -97.3442 279° West 357 411 36,000  Level Houston Center
Fri 12:36:04 AM 30.2778 -97.4578 279° West 355 409 36,000  Level Houston Center
Fri 12:37:05 AM 30.2944 -97.5725 280° West 358 412 36,000  Level Houston Center
Fri 12:38:05 AM 30.3119 -97.6878 280° West 358 412 36,000  Level Houston Center
Fri 12:39:06 AM 30.3283 -97.8028 279° West 357 411 36,000  Level Houston Center
Fri 12:40:07 AM 30.3444 -97.9161 279° West 355 409 36,000  Level Houston Center
Fri 12:41:07 AM 30.3600 -98.0319 279° West 360 414 36,000  Level Houston Center
Fri 12:42:08 AM 30.3767 -98.1458 280° West 357 411 36,000  Level Houston Center
Fri 12:43:09 AM 30.4083 -98.2594 288° West 362 417 36,000  Level Houston Center
Fri 12:44:09 AM 30.4547 -98.3694 296° West 373 429 36,000  Level Houston Center
Fri 12:45:10 AM 30.5014 -98.4803 296° West 378 435 36,000  Level Houston Center
Fri 12:46:11 AM 30.5467 -98.5889 296° West 371 427 36,000  Level Houston Center
Fri 12:47:11 AM 30.5956 -98.7000 297° West 380 437 36,000  Level Houston Center
Fri 12:48:12 AM 30.6436 -98.8114 297° West 381 438 36,000  Level Houston Center
Fri 12:49:13 AM 30.6900 -98.9211 296° West 376 433 36,000  Level Houston Center
Fri 12:50:13 AM 30.7369 -99.0308 296° West 375 432 36,000  Level Houston Center
Fri 12:51:14 AM 30.7839 -99.1397 297° West 373 429 36,000  Level Houston Center
Fri 12:52:14 AM 30.8344 -99.2581 296° West 370 426 36,000  Level Houston Center
Fri 12:53:15 AM 30.8786 -99.3653 296° West 370 426 36,000  Level Houston Center
Fri 12:54:16 AM 30.9236 -99.4708 296° West 367 422 36,000  Level Houston Center
Fri 12:55:16 AM 30.9686 -99.5783 296° West 370 426 36,000  Level Houston Center
Fri 12:56:17 AM 31.0133 -99.6872 296° West 372 428 36,000  Level Houston Center
Fri 12:57:17 AM 31.0586 -99.7961 296° West 374 430 36,000  Level Houston Center
Fri 12:58:18 AM 31.1025 -99.9056 295° West 374 430 36,000  Level Houston Center
Fri 12:59:18 AM 31.1481 -100.0144 296° West 374 430 36,000  Level Houston Center
Fri 01:00:19 AM 31.1933 -100.1236 296° West 374 430 36,000  Level Houston Center
Fri 01:01:20 AM 31.2383 -100.2342 295° West 377 434 36,000 -50 Level Houston Center
Fri 01:02:20 AM 31.2836 -100.3447 288° West 378 435 35,900  Descending Houston Center
Fri 01:02:39 AM 31.3033 -100.3917 296° West 371 427 36,000 76 Climbing Fort Worth Center
Fri 01:03:39 AM 31.3464 -100.5025 294° West 371 427 36,000  Level Fort Worth Center
Fri 01:04:39 AM 31.3897 -100.6108 295° West 371 427 36,000  Level Fort Worth Center
Fri 01:05:39 AM 31.4308 -100.7169 294° West 365 420 36,000  Level Fort Worth Center
Fri 01:06:39 AM 31.4739 -100.8258 295° West 365 420 36,000  Level Fort Worth Center
Fri 01:07:39 AM 31.5167 -100.9344 295° West 365 420 36,000  Level Fort Worth Center
Fri 01:08:39 AM 31.5636 -101.0483 296° West 365 420 36,000  Level Fort Worth Center
Fri 01:10:00 AM 31.6295 -101.1981 297° West  Level FlightAware Approximate
Fri 01:11:36 AM 31.6978 -101.3831 297° West 385 443 36,000  Level Albuquerque Center
Fri 01:12:39 AM 31.7481 -101.5053 296° West 386 444 36,000  Level Fort Worth Center
Fri 01:13:39 AM 31.7961 -101.6222 296° West 386 444 36,000  Level Fort Worth Center
Fri 01:14:39 AM 31.8403 -101.7367 294° West 386 444 36,000  Level Fort Worth Center
Fri 01:16:39 AM 31.9244 -101.9583 294° West 384 442 36,000  Level Fort Worth Center
Fri 01:17:39 AM 31.9681 -102.0733 294° West 384 442 36,000 -50 Level Fort Worth Center
Fri 01:18:39 AM 32.0119 -102.1858 295° West 384 442 35,900  Descending Fort Worth Center
Fri 01:19:39 AM 32.0556 -102.3031 294° West 384 442 36,000 50 Climbing Fort Worth Center
Fri 01:20:39 AM 32.0989 -102.4183 294° West 384 442 36,000  Level Fort Worth Center
Fri 01:21:39 AM 32.1417 -102.5458 292° West 384 442 36,000  Level Fort Worth Center
Fri 01:22:39 AM 32.1872 -102.6611 295° West 384 442 36,000  Level Fort Worth Center
Fri 01:23:39 AM 32.2306 -102.7717 295° West 379 436 36,000  Level Fort Worth Center
Fri 01:24:39 AM 32.2736 -102.8847 294° West 379 436 36,000  Level Fort Worth Center
Fri 01:25:39 AM 32.3186 -103.0006 295° West 379 436 36,000  Level Fort Worth Center
Fri 01:26:39 AM 32.3556 -103.1036 293° West 379 436 36,000  Level Fort Worth Center
Fri 01:27:39 AM 32.3983 -103.2194 294° West 384 442 36,000  Level Fort Worth Center
Fri 01:28:39 AM 32.4431 -103.3331 295° West 384 442 36,000  Level Fort Worth Center
Fri 01:29:49 AM 32.4886 -103.4603 293° West 384 442 36,000  Level Albuquerque Center
Fri 01:30:50 AM 32.5300 -103.5750 293° West 381 438 36,000  Level Albuquerque Center
Fri 01:31:50 AM 32.5722 -103.6892 294° West 380 437 36,000  Level Albuquerque Center
Fri 01:32:51 AM 32.6147 -103.8036 294° West 381 438 36,000  Level Albuquerque Center
Fri 01:33:52 AM 32.6667 -103.9400 294° West 385 443 36,000  Level Albuquerque Center
Fri 01:34:52 AM 32.7111 -104.0539 295° West 381 438 36,000  Level Albuquerque Center
Fri 01:35:53 AM 32.7528 -104.1719 293° West 384 442 36,000  Level Albuquerque Center
Fri 01:36:54 AM 32.7967 -104.2889 294° West 386 444 36,000  Level Albuquerque Center
Fri 01:37:54 AM 32.8386 -104.4061 293° West 384 442 36,000  Level Albuquerque Center
Fri 01:38:55 AM 32.8828 -104.5350 292° West 388 447 36,000  Level Albuquerque Center
Fri 01:39:56 AM 32.9247 -104.6503 293° West 382 440 36,000  Level Albuquerque Center
Fri 01:40:56 AM 32.9653 -104.7658 293° West 379 436 36,000  Level Albuquerque Center
Fri 01:41:57 AM 33.0069 -104.8806 293° West 378 435 36,000  Level Albuquerque Center
Fri 01:42:58 AM 33.0481 -104.9944 293° West 375 432 36,000  Level Albuquerque Center
Fri 01:43:58 AM 33.0892 -105.1103 293° West 379 436 36,000  Level Albuquerque Center
Fri 01:44:59 AM 33.1303 -105.2253 293° West 378 435 36,000  Level Albuquerque Center
Fri 01:46:00 AM 33.1706 -105.3433 293° West 383 441 36,000  Level Albuquerque Center
Fri 01:47:00 AM 33.2128 -105.4619 293° West 388 447 36,000  Level Albuquerque Center
Fri 01:48:01 AM 33.2575 -105.5928 292° West 394 453 36,000  Level Albuquerque Center
Fri 01:49:02 AM 33.2928 -105.6914 293° West 400 460 36,000  Level Albuquerque Center
Fri 01:50:02 AM 33.3425 -105.8397 293° West 402 463 36,000 -50 Level Albuquerque Center
Fri 01:51:03 AM 33.3869 -105.9631 293° West 403 464 35,900  Descending Albuquerque Center
Fri 01:52:03 AM 33.4283 -106.0875 292° West 404 465 36,000 50 Climbing Albuquerque Center
Fri 01:53:04 AM 33.4706 -106.2117 292° West 405 466 36,000  Level Albuquerque Center
Fri 01:54:05 AM 33.5133 -106.3356 293° West 404 465 36,000  Level Albuquerque Center
Fri 01:55:05 AM 33.5558 -106.4600 292° West 405 466 36,000 -248 Level Albuquerque Center
Fri 01:56:06 AM 33.5967 -106.5831 292° West 403 464 35,500 -836 Descending Albuquerque Center
Fri 01:57:07 AM 33.6375 -106.7072 292° West 402 463 34,300 -1,339 Descending Albuquerque Center
Fri 01:58:07 AM 33.6789 -106.8306 292° West 400 460 32,800 -1,190 Descending Albuquerque Center
Fri 01:59:08 AM 33.7228 -106.9572 293° West 406 467 31,900 -443 Descending Albuquerque Center
Fri 02:00:09 AM 33.7650 -107.0850 292° West 411 473 31,900 50 Level Albuquerque Center
Fri 02:01:09 AM 33.8056 -107.2117 291° West 410 472 32,000 50 Climbing Albuquerque Center
Fri 02:02:10 AM 33.8467 -107.3375 292° West 407 468 32,000  Level Albuquerque Center
Fri 02:03:10 AM 33.8897 -107.4658 292° West 410 472 32,000  Level Albuquerque Center
Fri 02:04:11 AM 33.9306 -107.5972 291° West 415 478 32,000  Level Albuquerque Center
Fri 02:05:12 AM 33.9722 -107.7283 291° West 418 481 32,000  Level Albuquerque Center
Fri 02:06:12 AM 34.0233 -107.8764 294° West 410 472 32,000  Level Albuquerque Center
Fri 02:07:13 AM 34.0642 -108.0067 291° West 414 476 32,000  Level Albuquerque Center
Fri 02:08:13 AM 34.1058 -108.1364 291° West 415 478 32,000  Level Albuquerque Center
Fri 02:09:14 AM 34.1381 -108.2517 289° West 423 487 32,000  Level Albuquerque Center
Fri 02:10:14 AM 34.1472 -108.4208 274° West 428 493 32,000  Level Albuquerque Center
Fri 02:11:15 AM 34.1494 -108.5619 294° West 427 491 32,000  Level Albuquerque Center
Fri 02:12:16 AM 34.1519 -108.7053 271° West 429 494 32,000  Level Albuquerque Center
Fri 02:13:16 AM 34.1536 -108.8475 271° West 429 494 32,000  Level Albuquerque Center
Fri 02:14:17 AM 34.1558 -108.9875 271° West 426 490 32,000  Level Albuquerque Center
Fri 02:15:17 AM 34.1586 -109.1303 271° West 427 491 32,000  Level Albuquerque Center
Fri 02:16:18 AM 34.1614 -109.2714 271° West 428 493 32,000  Level Albuquerque Center
Fri 02:17:18 AM 34.1642 -109.4156 271° West 431 496 32,000  Level Albuquerque Center
Fri 02:18:19 AM 34.1686 -109.5853 272° West 431 496 32,000  Level Albuquerque Center
Fri 02:19:20 AM 34.1700 -109.7253 271° West 434 499 32,000  Level Albuquerque Center
Fri 02:20:20 AM 34.1728 -109.8636 293° West 432 497 32,000  Level Albuquerque Center
Fri 02:21:21 AM 34.1725 -110.0006 270° West 428 493 32,000  Level Albuquerque Center
Fri 02:22:21 AM 34.1739 -110.1586 271° West 432 497 32,000  Level Albuquerque Center
Fri 02:23:22 AM 34.1764 -110.3044 271° West 436 502 32,000  Level Albuquerque Center
Fri 02:24:22 AM 34.1756 -110.4514 270° West 441 507 32,000  Level Albuquerque Center
Fri 02:25:23 AM 34.1764 -110.5975 270° West 442 509 32,000  Level Albuquerque Center
Fri 02:26:24 AM 34.1792 -110.7589 271° West 442 509 32,000  Level Albuquerque Center
Fri 02:27:24 AM 34.1792 -110.9078 270° West 444 511 32,000  Level Albuquerque Center
Fri 02:28:25 AM 34.1803 -111.0564 271° West 445 512 32,000  Level Albuquerque Center
Fri 02:29:25 AM 34.1806 -111.2067 270° West 448 516 32,000  Level Albuquerque Center
Fri 02:30:26 AM 34.1814 -111.3561 270° West 448 516 32,000  Level Albuquerque Center
Fri 02:31:26 AM 34.1811 -111.5047 270° West 446 513 32,000  Level Albuquerque Center
Fri 02:32:27 AM 34.1808 -111.6531 270° West 448 516 32,000  Level Albuquerque Center
Fri 02:33:28 AM 34.1811 -111.8150 270° West 442 509 32,000  Level Albuquerque Center
Fri 02:34:28 AM 34.1800 -111.9642 270° West 445 512 32,000  Level Albuquerque Center
Fri 02:35:29 AM 34.1797 -112.0964 270° West 455 524 32,000  Level Albuquerque Center
Fri 02:36:29 AM 34.1789 -112.2464 270° West 451 519 32,000  Level Albuquerque Center
Fri 02:37:30 AM 34.1789 -112.4256 270° West 448 516 32,000  Level Albuquerque Center
Fri 02:38:30 AM 34.1783 -112.5772 270° West 452 520 32,000  Level Albuquerque Center
Fri 02:39:31 AM 34.1783 -112.7269 270° West 451 519 32,000  Level Albuquerque Center
Fri 02:40:32 AM 34.1739 -112.8786 268° West 451 519 32,000  Level Albuquerque Center
Fri 02:41:32 AM 34.1733 -113.0286 270° West 449 517 32,000  Level Albuquerque Center
Fri 02:42:33 AM 34.1722 -113.1772 270° West 446 513 32,000  Level Albuquerque Center
Fri 02:43:33 AM 34.1686 -113.3261 268° West 446 513 32,000  Level Albuquerque Center
Fri 02:44:34 AM 34.1675 -113.4744 270° West 444 511 32,000  Level Albuquerque Center
Fri 02:45:34 AM 34.1656 -113.6375 269° West 442 509 32,000  Level Albuquerque Center
Fri 02:46:35 AM 34.1628 -113.7872 269° West 444 511 32,000  Level Albuquerque Center
Fri 02:47:35 AM 34.1600 -113.9367 269° West 445 512 32,000  Level Albuquerque Center
Fri 02:48:36 AM 34.1572 -114.0861 269° West 445 512 32,000  Level Albuquerque Center
Fri 02:49:37 AM 34.1556 -114.2356 269° West 445 512 32,000  Level Albuquerque Center
Fri 02:50:37 AM 34.1519 -114.3864 268° West 447 514 32,000  Level Albuquerque Center
Fri 02:51:13 AM 34.1514 -114.4667 270° West 448 516 32,000  Level Los Angeles Center
Fri 02:52:14 AM 34.1483 -114.6178 269° West 451 519 32,000  Level Los Angeles Center
Fri 02:53:15 AM 34.1450 -114.7669 268° West 448 516 32,000  Level Los Angeles Center
Fri 02:54:15 AM 34.1389 -114.9183 267° West 452 520 32,000  Level Los Angeles Center
Fri 02:55:16 AM 34.1347 -115.0700 268° West 453 521 32,000  Level Los Angeles Center
Fri 02:56:17 AM 34.1297 -115.2211 268° West 452 520 32,000  Level Los Angeles Center
Fri 02:57:17 AM 34.1250 -115.3744 268° West 457 526 32,000  Level Los Angeles Center
Fri 02:58:18 AM 34.1197 -115.5253 268° West 453 521 32,000  Level Los Angeles Center
Fri 02:59:18 AM 34.1153 -115.6767 289° West 455 524 32,000  Level Los Angeles Center
Fri 03:00:19 AM 34.1000 -115.8569 264° West 454 522 32,000  Level Los Angeles Center
Fri 03:01:19 AM 34.0781 -116.0072 260° West 456 525 32,000  Level Los Angeles Center
Fri 03:02:20 AM 34.0558 -116.1581 260° West 459 528 32,000 -393 Level Los Angeles Center
Fri 03:03:21 AM 34.0328 -116.3086 260° West 459 528 31,200 -2,132 Descending Los Angeles Center
Fri 03:04:21 AM 34.0103 -116.4581 260° West 457 526 27,700 -3,174 Descending Los Angeles Center
Fri 03:05:22 AM 33.9958 -116.6089 263° West 455 524 24,800 -2,777 Descending Los Angeles Center
Fri 03:06:22 AM 33.9839 -116.7542 264° West 441 507 22,100 -2,628 Descending Los Angeles Center
Fri 03:07:23 AM 33.9722 -116.8936 264° West 426 490 19,500 -2,430 Descending Los Angeles Center
Fri 03:08:23 AM 33.9611 -117.0297 264° West 414 476 17,200 -1,240 Descending Los Angeles Center
Fri 03:09:24 AM 33.9492 -117.1731 264° West 399 459 17,000 -198 Descending Los Angeles Center
Fri 03:10:24 AM 33.9389 -117.2994 264° West 384 442 16,800 -843 Descending Los Angeles Center
Fri 03:11:25 AM 33.9442 -117.4044 273° West 322 371 15,300 -1,866 Descending Los Angeles Center
Fri 03:12:23 AM 33.9833 -117.5000 296° West 291 335 13,100 -1,627 Descending Southern California TRACON
Fri 03:13:23 AM 34.0000 -117.5833 284° West 265 305 12,100 -1,282 Descending Southern California TRACON
Fri 03:14:34 AM 34.0167 -117.6833 281° West 262 302 10,300 -1,392 Descending Southern California TRACON
Fri 03:15:28 AM 34.0000 -117.7667 256° West 270 311 9,200 -1,150 Descending Southern California TRACON
Fri 03:16:34 AM 34.0000 -117.8667 270° West 268 308 8,000 -1,134 Descending Southern California TRACON
Fri 03:17:35 AM 33.9833 -117.9500 256° West 266 306 6,800 -744 Descending Southern California TRACON
Fri 03:18:35 AM 33.9667 -118.0333 256° West 235 270 6,500 -600 Descending Southern California TRACON
Fri 03:19:35 AM 33.9667 -118.1000 270° West 204 235 5,600 -737 Descending Southern California TRACON
Fri 03:20:29 AM 33.9642 -118.1531 267° West 201 231 5,100 -939 Descending Los Angeles Center
Fri 03:21:30 AM 33.9586 -118.2050 263° West 168 193 3,800 -1,438 Descending Los Angeles Center
Fri 03:22:30 AM 33.9533 -118.2525 262° West 150 173 2,200 -1,600 Descending Los Angeles Center

Login

Don't have an account? Register now (free) for customized features, flight alerts, and more!